sensor_id;sensor_type;location;lat;lon;timestamp;P1;durP1;ratioP1;P2;durP2;ratioP2
26038;SDS011;13815;52.374;4.882;2022-11-24T00:01:51;0.20;;;0.13;;
26038;SDS011;13815;52.374;4.882;2022-11-24T00:04:54;0.00;;;0.00;;
26038;SDS011;13815;52.374;4.882;2022-11-24T00:07:29;0.20;;;0.10;;
26038;SDS011;13815;52.374;4.882;2022-11-24T00:10:51;0.00;;;0.00;;
26038;SDS011;13815;52.374;4.882;2022-11-24T00:13:20;0.13;;;0.10;;
26038;SDS011;13815;52.374;4.882;2022-11-24T00:16:02;0.00;;;0.00;;
26038;SDS011;13815;52.374;4.882;2022-11-24T00:21:23;0.28;;;0.17;;
26038;SDS011;13815;52.374;4.882;2022-11-24T00:23:53;0.00;;;0.00;;
26038;SDS011;13815;52.374;4.882;2022-11-24T00:35:11;0.00;;;0.00;;
26038;SDS011;13815;52.374;4.882;2022-11-24T00:40:04;0.00;;;0.00;;
26038;SDS011;13815;52.374;4.882;2022-11-24T00:42:32;0.00;;;0.00;;
26038;SDS011;13815;52.374;4.882;2022-11-24T00:44:58;0.00;;;0.00;;
26038;SDS011;13815;52.374;4.882;2022-11-24T00:47:23;0.00;;;0.00;;
26038;SDS011;13815;52.374;4.882;2022-11-24T00:49:48;0.00;;;0.00;;
26038;SDS011;13815;52.374;4.882;2022-11-24T00:52:14;0.00;;;0.00;;
26038;SDS011;13815;52.374;4.882;2022-11-24T00:54:39;0.00;;;0.00;;
26038;SDS011;13815;52.374;4.882;2022-11-24T00:57:06;0.00;;;0.00;;
26038;SDS011;13815;52.374;4.882;2022-11-24T00:59:31;0.98;;;0.20;;
26038;SDS011;13815;52.374;4.882;2022-11-24T01:01:57;0.00;;;0.00;;
26038;SDS011;13815;52.374;4.882;2022-11-24T01:04:22;1.02;;;0.35;;
26038;SDS011;13815;52.374;4.882;2022-11-24T01:06:47;0.00;;;0.00;;
26038;SDS011;13815;52.374;4.882;2022-11-24T01:09:13;0.00;;;0.00;;
26038;SDS011;13815;52.374;4.882;2022-11-24T01:11:38;1.35;;;0.22;;
26038;SDS011;13815;52.374;4.882;2022-11-24T01:14:23;0.00;;;0.00;;
26038;SDS011;13815;52.374;4.882;2022-11-24T01:16:49;0.00;;;0.00;;
26038;SDS011;13815;52.374;4.882;2022-11-24T01:19:14;0.00;;;0.00;;
26038;SDS011;13815;52.374;4.882;2022-11-24T01:21:39;0.00;;;0.00;;
26038;SDS011;13815;52.374;4.882;2022-11-24T01:24:05;0.00;;;0.00;;
26038;SDS011;13815;52.374;4.882;2022-11-24T01:26:30;0.08;;;0.00;;
26038;SDS011;13815;52.374;4.882;2022-11-24T01:33:59;0.00;;;0.00;;
26038;SDS011;13815;52.374;4.882;2022-11-24T01:36:24;0.00;;;0.00;;
26038;SDS011;13815;52.374;4.882;2022-11-24T01:38:59;0.28;;;0.15;;
26038;SDS011;13815;52.374;4.882;2022-11-24T01:56:02;0.28;;;0.13;;
26038;SDS011;13815;52.374;4.882;2022-11-24T01:58:28;0.00;;;0.00;;
26038;SDS011;13815;52.374;4.882;2022-11-24T02:00:55;0.00;;;0.00;;
26038;SDS011;13815;52.374;4.882;2022-11-24T02:03:21;0.00;;;0.00;;
26038;SDS011;13815;52.374;4.882;2022-11-24T02:06:10;0.00;;;0.00;;
26038;SDS011;13815;52.374;4.882;2022-11-24T02:11:16;0.30;;;0.17;;
26038;SDS011;13815;52.374;4.882;2022-11-24T02:13:42;0.00;;;0.00;;
26038;SDS011;13815;52.374;4.882;2022-11-24T02:16:09;0.00;;;0.00;;
26038;SDS011;13815;52.374;4.882;2022-11-24T02:18:36;0.00;;;0.00;;
26038;SDS011;13815;52.374;4.882;2022-11-24T02:21:02;0.00;;;0.00;;
26038;SDS011;13815;52.374;4.882;2022-11-24T02:23:41;0.10;;;0.10;;
26038;SDS011;13815;52.374;4.882;2022-11-24T02:26:18;0.00;;;0.00;;
26038;SDS011;13815;52.374;4.882;2022-11-24T02:28:54;0.00;;;0.00;;
26038;SDS011;13815;52.374;4.882;2022-11-24T02:31:20;0.10;;;0.10;;
26038;SDS011;13815;52.374;4.882;2022-11-24T02:33:45;0.00;;;0.00;;
26038;SDS011;13815;52.374;4.882;2022-11-24T02:36:14;0.00;;;0.00;;
26038;SDS011;13815;52.374;4.882;2022-11-24T02:38:41;0.00;;;0.00;;
26038;SDS011;13815;52.374;4.882;2022-11-24T02:41:09;0.00;;;0.00;;
26038;SDS011;13815;52.374;4.882;2022-11-24T02:43:38;0.00;;;0.00;;
26038;SDS011;13815;52.374;4.882;2022-11-24T02:46:06;0.40;;;0.25;;
26038;SDS011;13815;52.374;4.882;2022-11-24T02:48:32;0.00;;;0.00;;
26038;SDS011;13815;52.374;4.882;2022-11-24T02:50:57;0.00;;;0.00;;
26038;SDS011;13815;52.374;4.882;2022-11-24T02:53:22;0.00;;;0.00;;
26038;SDS011;13815;52.374;4.882;2022-11-24T02:55:48;0.00;;;0.00;;
26038;SDS011;13815;52.374;4.882;2022-11-24T02:58:13;0.00;;;0.00;;
26038;SDS011;13815;52.374;4.882;2022-11-24T03:00:39;0.00;;;0.00;;
26038;SDS011;13815;52.374;4.882;2022-11-24T03:03:05;0.00;;;0.00;;
26038;SDS011;13815;52.374;4.882;2022-11-24T03:05:30;0.47;;;0.20;;
26038;SDS011;13815;52.374;4.882;2022-11-24T03:07:55;0.00;;;0.00;;
26038;SDS011;13815;52.374;4.882;2022-11-24T03:10:21;0.00;;;0.00;;
26038;SDS011;13815;52.374;4.882;2022-11-24T03:12:46;0.38;;;0.20;;
26038;SDS011;13815;52.374;4.882;2022-11-24T03:15:12;0.15;;;0.10;;
26038;SDS011;13815;52.374;4.882;2022-11-24T03:17:37;0.00;;;0.00;;
26038;SDS011;13815;52.374;4.882;2022-11-24T03:20:03;0.00;;;0.00;;
26038;SDS011;13815;52.374;4.882;2022-11-24T03:22:28;0.00;;;0.00;;
26038;SDS011;13815;52.374;4.882;2022-11-24T03:24:54;0.00;;;0.00;;
26038;SDS011;13815;52.374;4.882;2022-11-24T03:27:19;0.00;;;0.00;;
26038;SDS011;13815;52.374;4.882;2022-11-24T03:29:45;0.00;;;0.00;;
26038;SDS011;13815;52.374;4.882;2022-11-24T03:32:10;0.20;;;0.10;;
26038;SDS011;13815;52.374;4.882;2022-11-24T03:34:36;0.00;;;0.00;;
26038;SDS011;13815;52.374;4.882;2022-11-24T03:37:01;0.00;;;0.00;;
26038;SDS011;13815;52.374;4.882;2022-11-24T03:39:26;0.30;;;0.20;;
26038;SDS011;13815;52.374;4.882;2022-11-24T03:41:52;0.30;;;0.20;;
26038;SDS011;13815;52.374;4.882;2022-11-24T03:44:17;0.00;;;0.00;;
26038;SDS011;13815;52.374;4.882;2022-11-24T03:46:43;0.00;;;0.00;;
26038;SDS011;13815;52.374;4.882;2022-11-24T03:49:08;0.25;;;0.13;;
26038;SDS011;13815;52.374;4.882;2022-11-24T03:51:34;0.40;;;0.25;;
26038;SDS011;13815;52.374;4.882;2022-11-24T03:53:59;0.00;;;0.00;;
26038;SDS011;13815;52.374;4.882;2022-11-24T03:56:25;0.00;;;0.00;;
26038;SDS011;13815;52.374;4.882;2022-11-24T03:58:50;0.00;;;0.00;;
26038;SDS011;13815;52.374;4.882;2022-11-24T04:01:16;0.00;;;0.00;;
26038;SDS011;13815;52.374;4.882;2022-11-24T04:03:42;0.00;;;0.00;;
26038;SDS011;13815;52.374;4.882;2022-11-24T04:06:07;0.00;;;0.00;;
26038;SDS011;13815;52.374;4.882;2022-11-24T04:08:33;0.10;;;0.10;;
26038;SDS011;13815;52.374;4.882;2022-11-24T04:11:01;0.00;;;0.00;;
26038;SDS011;13815;52.374;4.882;2022-11-24T04:13:27;0.00;;;0.00;;
26038;SDS011;13815;52.374;4.882;2022-11-24T04:15:52;0.00;;;0.00;;
26038;SDS011;13815;52.374;4.882;2022-11-24T04:18:18;0.47;;;0.10;;
26038;SDS011;13815;52.374;4.882;2022-11-24T04:20:43;0.00;;;0.00;;
26038;SDS011;13815;52.374;4.882;2022-11-24T04:23:09;0.08;;;0.03;;
26038;SDS011;13815;52.374;4.882;2022-11-24T04:25:34;0.00;;;0.00;;
26038;SDS011;13815;52.374;4.882;2022-11-24T04:28:00;0.00;;;0.00;;
26038;SDS011;13815;52.374;4.882;2022-11-24T04:30:25;0.00;;;0.00;;
26038;SDS011;13815;52.374;4.882;2022-11-24T04:32:53;0.00;;;0.00;;
26038;SDS011;13815;52.374;4.882;2022-11-24T04:35:18;2.70;;;0.35;;
26038;SDS011;13815;52.374;4.882;2022-11-24T04:37:44;0.10;;;0.10;;
26038;SDS011;13815;52.374;4.882;2022-11-24T04:40:10;0.00;;;0.00;;
26038;SDS011;13815;52.374;4.882;2022-11-24T04:42:35;0.00;;;0.00;;
26038;SDS011;13815;52.374;4.882;2022-11-24T04:45:01;1.48;;;0.20;;
26038;SDS011;13815;52.374;4.882;2022-11-24T04:47:27;1.55;;;0.20;;
26038;SDS011;13815;52.374;4.882;2022-11-24T04:49:52;0.00;;;0.00;;
26038;SDS011;13815;52.374;4.882;2022-11-24T04:52:18;0.00;;;0.00;;
26038;SDS011;13815;52.374;4.882;2022-11-24T04:54:46;0.00;;;0.00;;
26038;SDS011;13815;52.374;4.882;2022-11-24T04:57:19;0.00;;;0.00;;
26038;SDS011;13815;52.374;4.882;2022-11-24T04:59:47;0.00;;;0.00;;
26038;SDS011;13815;52.374;4.882;2022-11-24T05:02:13;0.00;;;0.00;;
26038;SDS011;13815;52.374;4.882;2022-11-24T05:04:39;2.15;;;0.35;;
26038;SDS011;13815;52.374;4.882;2022-11-24T05:07:04;0.00;;;0.00;;
26038;SDS011;13815;52.374;4.882;2022-11-24T05:09:30;0.00;;;0.00;;
26038;SDS011;13815;52.374;4.882;2022-11-24T05:11:58;1.45;;;0.20;;
26038;SDS011;13815;52.374;4.882;2022-11-24T05:14:23;0.00;;;0.00;;
26038;SDS011;13815;52.374;4.882;2022-11-24T05:16:50;0.00;;;0.00;;
26038;SDS011;13815;52.374;4.882;2022-11-24T05:19:15;0.32;;;0.03;;
26038;SDS011;13815;52.374;4.882;2022-11-24T05:21:41;1.45;;;0.20;;
26038;SDS011;13815;52.374;4.882;2022-11-24T05:24:09;1.85;;;0.20;;
26038;SDS011;13815;52.374;4.882;2022-11-24T05:26:34;0.00;;;0.00;;
26038;SDS011;13815;52.374;4.882;2022-11-24T05:29:00;0.00;;;0.00;;
26038;SDS011;13815;52.374;4.882;2022-11-24T05:31:28;0.00;;;0.00;;
26038;SDS011;13815;52.374;4.882;2022-11-24T05:33:53;0.00;;;0.00;;
26038;SDS011;13815;52.374;4.882;2022-11-24T05:36:19;0.00;;;0.00;;
26038;SDS011;13815;52.374;4.882;2022-11-24T05:39:03;0.00;;;0.00;;
26038;SDS011;13815;52.374;4.882;2022-11-24T05:41:28;0.00;;;0.00;;
26038;SDS011;13815;52.374;4.882;2022-11-24T05:43:54;0.00;;;0.00;;
26038;SDS011;13815;52.374;4.882;2022-11-24T05:46:22;2.30;;;0.30;;
26038;SDS011;13815;52.374;4.882;2022-11-24T05:48:48;0.00;;;0.00;;
26038;SDS011;13815;52.374;4.882;2022-11-24T05:51:13;1.75;;;0.20;;
26038;SDS011;13815;52.374;4.882;2022-11-24T05:53:38;0.00;;;0.00;;
26038;SDS011;13815;52.374;4.882;2022-11-24T05:56:04;0.00;;;0.00;;
26038;SDS011;13815;52.374;4.882;2022-11-24T05:58:29;0.55;;;0.10;;
26038;SDS011;13815;52.374;4.882;2022-11-24T06:00:55;0.80;;;0.20;;
26038;SDS011;13815;52.374;4.882;2022-11-24T06:03:20;0.00;;;0.00;;
26038;SDS011;13815;52.374;4.882;2022-11-24T06:05:46;0.00;;;0.00;;
26038;SDS011;13815;52.374;4.882;2022-11-24T06:08:11;0.80;;;0.20;;
26038;SDS011;13815;52.374;4.882;2022-11-24T06:10:37;0.00;;;0.00;;
26038;SDS011;13815;52.374;4.882;2022-11-24T06:13:05;0.57;;;0.20;;
26038;SDS011;13815;52.374;4.882;2022-11-24T06:15:32;0.10;;;0.00;;
26038;SDS011;13815;52.374;4.882;2022-11-24T06:17:58;0.00;;;0.00;;
26038;SDS011;13815;52.374;4.882;2022-11-24T06:26:03;0.70;;;0.20;;
26038;SDS011;13815;52.374;4.882;2022-11-24T06:28:29;0.00;;;0.00;;
26038;SDS011;13815;52.374;4.882;2022-11-24T06:30:58;0.00;;;0.00;;
26038;SDS011;13815;52.374;4.882;2022-11-24T06:33:24;1.45;;;0.20;;
26038;SDS011;13815;52.374;4.882;2022-11-24T06:35:50;0.00;;;0.00;;
26038;SDS011;13815;52.374;4.882;2022-11-24T06:38:21;1.65;;;0.20;;
26038;SDS011;13815;52.374;4.882;2022-11-24T06:40:46;1.08;;;0.20;;
26038;SDS011;13815;52.374;4.882;2022-11-24T06:43:22;1.58;;;0.15;;
26038;SDS011;13815;52.374;4.882;2022-11-24T06:45:50;0.00;;;0.00;;
26038;SDS011;13815;52.374;4.882;2022-11-24T06:48:15;2.00;;;0.20;;
26038;SDS011;13815;52.374;4.882;2022-11-24T06:50:40;0.00;;;0.00;;
26038;SDS011;13815;52.374;4.882;2022-11-24T06:53:06;0.00;;;0.00;;
26038;SDS011;13815;52.374;4.882;2022-11-24T06:55:31;1.23;;;0.15;;
26038;SDS011;13815;52.374;4.882;2022-11-24T06:57:57;0.00;;;0.00;;
26038;SDS011;13815;52.374;4.882;2022-11-24T07:00:23;0.63;;;0.10;;
26038;SDS011;13815;52.374;4.882;2022-11-24T07:02:49;0.00;;;0.00;;
26038;SDS011;13815;52.374;4.882;2022-11-24T07:05:14;0.98;;;0.20;;
26038;SDS011;13815;52.374;4.882;2022-11-24T07:07:40;0.00;;;0.00;;
26038;SDS011;13815;52.374;4.882;2022-11-24T07:10:05;0.00;;;0.00;;
26038;SDS011;13815;52.374;4.882;2022-11-24T07:12:34;0.00;;;0.00;;
26038;SDS011;13815;52.374;4.882;2022-11-24T07:15:00;1.45;;;0.22;;
26038;SDS011;13815;52.374;4.882;2022-11-24T07:17:25;0.00;;;0.00;;
26038;SDS011;13815;52.374;4.882;2022-11-24T07:19:51;0.73;;;0.20;;
26038;SDS011;13815;52.374;4.882;2022-11-24T07:22:16;0.00;;;0.00;;
26038;SDS011;13815;52.374;4.882;2022-11-24T07:24:41;0.00;;;0.00;;
26038;SDS011;13815;52.374;4.882;2022-11-24T07:27:07;0.00;;;0.00;;
26038;SDS011;13815;52.374;4.882;2022-11-24T07:29:32;0.00;;;0.00;;
26038;SDS011;13815;52.374;4.882;2022-11-24T07:31:57;0.00;;;0.00;;
26038;SDS011;13815;52.374;4.882;2022-11-24T07:34:23;0.30;;;0.05;;
26038;SDS011;13815;52.374;4.882;2022-11-24T07:36:48;0.00;;;0.00;;
26038;SDS011;13815;52.374;4.882;2022-11-24T07:39:14;0.00;;;0.00;;
26038;SDS011;13815;52.374;4.882;2022-11-24T07:41:39;0.00;;;0.00;;
26038;SDS011;13815;52.374;4.882;2022-11-24T07:44:04;0.00;;;0.00;;
26038;SDS011;13815;52.374;4.882;2022-11-24T07:46:30;0.00;;;0.00;;
26038;SDS011;13815;52.374;4.882;2022-11-24T07:48:55;0.10;;;0.00;;
26038;SDS011;13815;52.374;4.882;2022-11-24T07:51:21;0.00;;;0.00;;
26038;SDS011;13815;52.374;4.882;2022-11-24T07:53:46;0.00;;;0.00;;
26038;SDS011;13815;52.374;4.882;2022-11-24T07:56:11;1.20;;;0.20;;
26038;SDS011;13815;52.374;4.882;2022-11-24T07:58:37;0.00;;;0.00;;
26038;SDS011;13815;52.374;4.882;2022-11-24T08:01:10;0.52;;;0.17;;
26038;SDS011;13815;52.374;4.882;2022-11-24T08:03:36;0.00;;;0.00;;
26038;SDS011;13815;52.374;4.882;2022-11-24T08:06:02;0.10;;;0.08;;
26038;SDS011;13815;52.374;4.882;2022-11-24T08:08:27;0.00;;;0.00;;
26038;SDS011;13815;52.374;4.882;2022-11-24T08:10:57;0.00;;;0.00;;
26038;SDS011;13815;52.374;4.882;2022-11-24T08:13:22;0.00;;;0.00;;
26038;SDS011;13815;52.374;4.882;2022-11-24T08:15:47;0.20;;;0.05;;
26038;SDS011;13815;52.374;4.882;2022-11-24T08:18:13;0.70;;;0.20;;
26038;SDS011;13815;52.374;4.882;2022-11-24T08:20:38;0.00;;;0.00;;
26038;SDS011;13815;52.374;4.882;2022-11-24T08:23:04;2.50;;;0.43;;
26038;SDS011;13815;52.374;4.882;2022-11-24T08:25:29;0.00;;;0.00;;
26038;SDS011;13815;52.374;4.882;2022-11-24T08:27:57;0.00;;;0.00;;
26038;SDS011;13815;52.374;4.882;2022-11-24T08:30:26;0.20;;;0.00;;
26038;SDS011;13815;52.374;4.882;2022-11-24T08:32:51;0.00;;;0.00;;
26038;SDS011;13815;52.374;4.882;2022-11-24T08:35:17;0.00;;;0.00;;
26038;SDS011;13815;52.374;4.882;2022-11-24T08:37:42;0.00;;;0.00;;
26038;SDS011;13815;52.374;4.882;2022-11-24T08:40:08;0.00;;;0.00;;
26038;SDS011;13815;52.374;4.882;2022-11-24T08:42:34;0.00;;;0.00;;
26038;SDS011;13815;52.374;4.882;2022-11-24T08:44:59;0.00;;;0.00;;
26038;SDS011;13815;52.374;4.882;2022-11-24T08:47:24;0.00;;;0.00;;
26038;SDS011;13815;52.374;4.882;2022-11-24T08:49:49;0.00;;;0.00;;
26038;SDS011;13815;52.374;4.882;2022-11-24T08:52:15;0.17;;;0.03;;
26038;SDS011;13815;52.374;4.882;2022-11-24T08:54:40;0.00;;;0.00;;
26038;SDS011;13815;52.374;4.882;2022-11-24T08:57:08;0.00;;;0.00;;
26038;SDS011;13815;52.374;4.882;2022-11-24T08:59:34;0.00;;;0.00;;
26038;SDS011;13815;52.374;4.882;2022-11-24T09:01:59;0.00;;;0.00;;
26038;SDS011;13815;52.374;4.882;2022-11-24T09:04:25;1.35;;;0.20;;
26038;SDS011;13815;52.374;4.882;2022-11-24T09:06:50;0.00;;;0.00;;
26038;SDS011;13815;52.374;4.882;2022-11-24T09:09:15;1.27;;;0.20;;
26038;SDS011;13815;52.374;4.882;2022-11-24T09:11:41;0.00;;;0.00;;
26038;SDS011;13815;52.374;4.882;2022-11-24T09:14:07;0.00;;;0.00;;
26038;SDS011;13815;52.374;4.882;2022-11-24T09:16:32;0.00;;;0.00;;
26038;SDS011;13815;52.374;4.882;2022-11-24T09:19:02;1.10;;;0.20;;
26038;SDS011;13815;52.374;4.882;2022-11-24T09:21:30;0.55;;;0.10;;
26038;SDS011;13815;52.374;4.882;2022-11-24T09:23:57;0.00;;;0.00;;
26038;SDS011;13815;52.374;4.882;2022-11-24T09:26:23;0.00;;;0.00;;
26038;SDS011;13815;52.374;4.882;2022-11-24T09:28:50;0.00;;;0.00;;
26038;SDS011;13815;52.374;4.882;2022-11-24T09:31:22;1.10;;;0.20;;
26038;SDS011;13815;52.374;4.882;2022-11-24T09:33:50;0.00;;;0.00;;
26038;SDS011;13815;52.374;4.882;2022-11-24T09:36:16;0.00;;;0.00;;
26038;SDS011;13815;52.374;4.882;2022-11-24T09:38:45;1.65;;;0.20;;
26038;SDS011;13815;52.374;4.882;2022-11-24T09:48:57;0.80;;;0.20;;
26038;SDS011;13815;52.374;4.882;2022-11-24T09:51:24;0.00;;;0.00;;
26038;SDS011;13815;52.374;4.882;2022-11-24T09:53:56;0.00;;;0.00;;
26038;SDS011;13815;52.374;4.882;2022-11-24T09:56:27;0.00;;;0.00;;
26038;SDS011;13815;52.374;4.882;2022-11-24T09:58:59;0.00;;;0.00;;
26038;SDS011;13815;52.374;4.882;2022-11-24T10:01:34;0.53;;;0.20;;
26038;SDS011;13815;52.374;4.882;2022-11-24T10:04:01;0.00;;;0.00;;
26038;SDS011;13815;52.374;4.882;2022-11-24T10:06:29;1.05;;;0.20;;
26038;SDS011;13815;52.374;4.882;2022-11-24T10:11:32;0.00;;;0.00;;
26038;SDS011;13815;52.374;4.882;2022-11-24T10:19:07;0.00;;;0.00;;
26038;SDS011;13815;52.374;4.882;2022-11-24T10:21:52;0.00;;;0.00;;
26038;SDS011;13815;52.374;4.882;2022-11-24T10:24:31;0.00;;;0.00;;
26038;SDS011;13815;52.374;4.882;2022-11-24T10:27:17;0.00;;;0.00;;
26038;SDS011;13815;52.374;4.882;2022-11-24T10:29:44;0.00;;;0.00;;
26038;SDS011;13815;52.374;4.882;2022-11-24T10:32:24;0.32;;;0.05;;
26038;SDS011;13815;52.374;4.882;2022-11-24T10:34:52;0.00;;;0.00;;
26038;SDS011;13815;52.374;4.882;2022-11-24T10:42:27;0.00;;;0.00;;
26038;SDS011;13815;52.374;4.882;2022-11-24T10:45:00;1.65;;;0.20;;
26038;SDS011;13815;52.374;4.882;2022-11-24T10:47:36;0.00;;;0.00;;
26038;SDS011;13815;52.374;4.882;2022-11-24T10:53:33;0.00;;;0.00;;
26038;SDS011;13815;52.374;4.882;2022-11-24T11:00:50;0.00;;;0.00;;
26038;SDS011;13815;52.374;4.882;2022-11-24T11:03:20;0.00;;;0.00;;
26038;SDS011;13815;52.374;4.882;2022-11-24T11:08:26;0.00;;;0.00;;
26038;SDS011;13815;52.374;4.882;2022-11-24T11:13:57;0.43;;;0.08;;
26038;SDS011;13815;52.374;4.882;2022-11-24T11:16:25;0.00;;;0.00;;
26038;SDS011;13815;52.374;4.882;2022-11-24T11:19:00;0.00;;;0.00;;
26038;SDS011;13815;52.374;4.882;2022-11-24T11:21:31;0.00;;;0.00;;
26038;SDS011;13815;52.374;4.882;2022-11-24T11:23:59;0.17;;;0.00;;
26038;SDS011;13815;52.374;4.882;2022-11-24T11:28:59;0.00;;;0.00;;
26038;SDS011;13815;52.374;4.882;2022-11-24T11:31:55;0.00;;;0.00;;
26038;SDS011;13815;52.374;4.882;2022-11-24T11:34:40;0.00;;;0.00;;
26038;SDS011;13815;52.374;4.882;2022-11-24T11:37:07;0.00;;;0.00;;
26038;SDS011;13815;52.374;4.882;2022-11-24T11:39:37;0.88;;;0.22;;
26038;SDS011;13815;52.374;4.882;2022-11-24T11:44:48;2.80;;;0.52;;
26038;SDS011;13815;52.374;4.882;2022-11-24T11:49:43;0.00;;;0.00;;
26038;SDS011;13815;52.374;4.882;2022-11-24T11:54:55;2.75;;;0.40;;
26038;SDS011;13815;52.374;4.882;2022-11-24T11:57:30;0.70;;;0.70;;
26038;SDS011;13815;52.374;4.882;2022-11-24T12:00:12;0.40;;;0.40;;
26038;SDS011;13815;52.374;4.882;2022-11-24T12:05:51;10.05;;;2.35;;
26038;SDS011;13815;52.374;4.882;2022-11-24T12:08:47;0.95;;;0.95;;
26038;SDS011;13815;52.374;4.882;2022-11-24T12:11:39;1.00;;;1.00;;
26038;SDS011;13815;52.374;4.882;2022-11-24T12:17:07;1.58;;;1.58;;
26038;SDS011;13815;52.374;4.882;2022-11-24T12:19:45;1.48;;;1.48;;
26038;SDS011;13815;52.374;4.882;2022-11-24T12:22:21;2.75;;;1.65;;
26038;SDS011;13815;52.374;4.882;2022-11-24T12:25:01;1.30;;;1.30;;
26038;SDS011;13815;52.374;4.882;2022-11-24T12:35:31;0.70;;;0.70;;
26038;SDS011;13815;52.374;4.882;2022-11-24T12:43:28;1.33;;;0.95;;
26038;SDS011;13815;52.374;4.882;2022-11-24T12:49:14;2.83;;;0.70;;
26038;SDS011;13815;52.374;4.882;2022-11-24T12:51:46;1.55;;;0.70;;
26038;SDS011;13815;52.374;4.882;2022-11-24T12:54:16;0.40;;;0.40;;
26038;SDS011;13815;52.374;4.882;2022-11-24T12:56:58;0.40;;;0.40;;
26038;SDS011;13815;52.374;4.882;2022-11-24T12:59:32;0.40;;;0.40;;
26038;SDS011;13815;52.374;4.882;2022-11-24T13:04:54;0.30;;;0.30;;
26038;SDS011;13815;52.374;4.882;2022-11-24T13:12:58;2.65;;;0.77;;
26038;SDS011;13815;52.374;4.882;2022-11-24T13:18:40;0.20;;;0.20;;
26038;SDS011;13815;52.374;4.882;2022-11-24T13:23:56;1.02;;;0.43;;
26038;SDS011;13815;52.374;4.882;2022-11-24T13:27:17;0.20;;;0.20;;
26038;SDS011;13815;52.374;4.882;2022-11-24T13:29:31;0.20;;;0.20;;
26038;SDS011;13815;52.374;4.882;2022-11-24T13:37:15;0.13;;;0.13;;
26038;SDS011;13815;52.374;4.882;2022-11-24T13:39:51;0.10;;;0.10;;
26038;SDS011;13815;52.374;4.882;2022-11-24T13:42:22;2.90;;;0.63;;
26038;SDS011;13815;52.374;4.882;2022-11-24T13:44:54;0.20;;;0.20;;
26038;SDS011;13815;52.374;4.882;2022-11-24T13:49:54;1.10;;;0.40;;
26038;SDS011;13815;52.374;4.882;2022-11-24T13:52:37;0.20;;;0.20;;
26038;SDS011;13815;52.374;4.882;2022-11-24T13:57:40;0.20;;;0.20;;
26038;SDS011;13815;52.374;4.882;2022-11-24T14:00:23;1.65;;;0.40;;
26038;SDS011;13815;52.374;4.882;2022-11-24T14:03:00;1.02;;;0.38;;
26038;SDS011;13815;52.374;4.882;2022-11-24T14:05:33;0.20;;;0.20;;
26038;SDS011;13815;52.374;4.882;2022-11-24T14:08:01;0.10;;;0.10;;
26038;SDS011;13815;52.374;4.882;2022-11-24T14:10:31;2.13;;;0.43;;
26038;SDS011;13815;52.374;4.882;2022-11-24T14:13:15;0.10;;;0.10;;
26038;SDS011;13815;52.374;4.882;2022-11-24T14:16:00;1.65;;;0.40;;
26038;SDS011;13815;52.374;4.882;2022-11-24T14:18:27;0.10;;;0.10;;
26038;SDS011;13815;52.374;4.882;2022-11-24T14:20:54;1.77;;;0.38;;
26038;SDS011;13815;52.374;4.882;2022-11-24T14:23:20;0.10;;;0.10;;
26038;SDS011;13815;52.374;4.882;2022-11-24T14:25:46;0.10;;;0.10;;
26038;SDS011;13815;52.374;4.882;2022-11-24T14:28:19;2.72;;;0.55;;
26038;SDS011;13815;52.374;4.882;2022-11-24T14:30:47;0.10;;;0.10;;
26038;SDS011;13815;52.374;4.882;2022-11-24T14:33:12;1.33;;;0.38;;
26038;SDS011;13815;52.374;4.882;2022-11-24T14:35:43;0.10;;;0.10;;
26038;SDS011;13815;52.374;4.882;2022-11-24T14:38:10;0.10;;;0.10;;
26038;SDS011;13815;52.374;4.882;2022-11-24T14:40:44;1.13;;;0.32;;
26038;SDS011;13815;52.374;4.882;2022-11-24T14:45:56;0.10;;;0.10;;
26038;SDS011;13815;52.374;4.882;2022-11-24T14:48:27;0.10;;;0.10;;
26038;SDS011;13815;52.374;4.882;2022-11-24T14:50:54;1.85;;;0.32;;
26038;SDS011;13815;52.374;4.882;2022-11-24T14:53:29;0.10;;;0.10;;
26038;SDS011;13815;52.374;4.882;2022-11-24T14:58:45;0.00;;;0.00;;
26038;SDS011;13815;52.374;4.882;2022-11-24T15:07:41;0.00;;;0.00;;
26038;SDS011;13815;52.374;4.882;2022-11-24T15:12:24;0.00;;;0.00;;
26038;SDS011;13815;52.374;4.882;2022-11-24T15:14:52;0.00;;;0.00;;
26038;SDS011;13815;52.374;4.882;2022-11-24T15:17:21;0.00;;;0.00;;
26038;SDS011;13815;52.374;4.882;2022-11-24T15:20:31;1.45;;;0.28;;
26038;SDS011;13815;52.374;4.882;2022-11-24T15:25:40;0.00;;;0.00;;
26038;SDS011;13815;52.374;4.882;2022-11-24T15:28:06;0.03;;;0.00;;
26038;SDS011;13815;52.374;4.882;2022-11-24T15:30:32;1.10;;;0.30;;
26038;SDS011;13815;52.374;4.882;2022-11-24T15:32:59;0.00;;;0.00;;
26038;SDS011;13815;52.374;4.882;2022-11-24T15:35:25;1.90;;;0.28;;
26038;SDS011;13815;52.374;4.882;2022-11-24T15:37:53;0.00;;;0.00;;
26038;SDS011;13815;52.374;4.882;2022-11-24T15:40:18;0.00;;;0.00;;
26038;SDS011;13815;52.374;4.882;2022-11-24T15:42:51;1.95;;;0.22;;
26038;SDS011;13815;52.374;4.882;2022-11-24T15:45:21;0.00;;;0.00;;
26038;SDS011;13815;52.374;4.882;2022-11-24T15:47:47;0.00;;;0.00;;
26038;SDS011;13815;52.374;4.882;2022-11-24T15:50:13;0.00;;;0.00;;
26038;SDS011;13815;52.374;4.882;2022-11-24T15:52:39;0.00;;;0.00;;
26038;SDS011;13815;52.374;4.882;2022-11-24T15:55:05;1.75;;;0.25;;
26038;SDS011;13815;52.374;4.882;2022-11-24T15:57:31;0.00;;;0.00;;
26038;SDS011;13815;52.374;4.882;2022-11-24T15:59:57;0.00;;;0.00;;
26038;SDS011;13815;52.374;4.882;2022-11-24T16:02:22;1.17;;;0.20;;
26038;SDS011;13815;52.374;4.882;2022-11-24T16:04:48;0.00;;;0.00;;
26038;SDS011;13815;52.374;4.882;2022-11-24T16:07:13;0.00;;;0.00;;
26038;SDS011;13815;52.374;4.882;2022-11-24T16:09:39;1.65;;;0.22;;
26038;SDS011;13815;52.374;4.882;2022-11-24T16:12:04;0.00;;;0.00;;
26038;SDS011;13815;52.374;4.882;2022-11-24T16:14:32;0.00;;;0.00;;
26038;SDS011;13815;52.374;4.882;2022-11-24T16:17:00;0.00;;;0.00;;
26038;SDS011;13815;52.374;4.882;2022-11-24T16:19:26;0.80;;;0.15;;
26038;SDS011;13815;52.374;4.882;2022-11-24T16:21:51;2.72;;;0.40;;
26038;SDS011;13815;52.374;4.882;2022-11-24T16:24:16;0.20;;;0.10;;
26038;SDS011;13815;52.374;4.882;2022-11-24T16:26:42;0.13;;;0.00;;
26038;SDS011;13815;52.374;4.882;2022-11-24T16:29:07;2.17;;;0.22;;
26038;SDS011;13815;52.374;4.882;2022-11-24T16:31:32;0.00;;;0.00;;
26038;SDS011;13815;52.374;4.882;2022-11-24T16:33:58;0.00;;;0.00;;
26038;SDS011;13815;52.374;4.882;2022-11-24T16:36:23;1.85;;;0.30;;
26038;SDS011;13815;52.374;4.882;2022-11-24T16:38:49;1.45;;;0.20;;
26038;SDS011;13815;52.374;4.882;2022-11-24T16:41:14;0.00;;;0.00;;
26038;SDS011;13815;52.374;4.882;2022-11-24T16:43:40;2.40;;;0.30;;
26038;SDS011;13815;52.374;4.882;2022-11-24T16:46:21;0.00;;;0.00;;
26038;SDS011;13815;52.374;4.882;2022-11-24T16:48:48;1.65;;;0.22;;
26038;SDS011;13815;52.374;4.882;2022-11-24T16:51:15;0.00;;;0.00;;
26038;SDS011;13815;52.374;4.882;2022-11-24T16:53:41;0.00;;;0.00;;
26038;SDS011;13815;52.374;4.882;2022-11-24T16:56:07;2.50;;;0.22;;
26038;SDS011;13815;52.374;4.882;2022-11-24T16:58:35;0.00;;;0.00;;
26038;SDS011;13815;52.374;4.882;2022-11-24T17:01:08;0.22;;;0.05;;
26038;SDS011;13815;52.374;4.882;2022-11-24T17:03:35;0.85;;;0.20;;
26038;SDS011;13815;52.374;4.882;2022-11-24T17:06:07;0.00;;;0.00;;
26038;SDS011;13815;52.374;4.882;2022-11-24T17:08:36;2.22;;;0.52;;
26038;SDS011;13815;52.374;4.882;2022-11-24T17:11:23;2.75;;;0.30;;
26038;SDS011;13815;52.374;4.882;2022-11-24T17:13:58;2.17;;;0.20;;
26038;SDS011;13815;52.374;4.882;2022-11-24T17:17:09;1.27;;;0.15;;
26038;SDS011;13815;52.374;4.882;2022-11-24T17:19:18;0.00;;;0.00;;
26038;SDS011;13815;52.374;4.882;2022-11-24T17:21:53;3.03;;;0.38;;
26038;SDS011;13815;52.374;4.882;2022-11-24T17:24:18;0.00;;;0.00;;
26038;SDS011;13815;52.374;4.882;2022-11-24T17:26:47;0.08;;;0.08;;
26038;SDS011;13815;52.374;4.882;2022-11-24T17:29:16;0.00;;;0.00;;